Time;durP1;ratioP1;P1;durP2;ratioP2;P2;SDS_P1;SDS_P2;PMS_P1;PMS_P2;Temp;Humidity;BMP_temperature;BMP_pressure;BME280_temperature;BME280_humidity;BME280_pressure;Samples;Min_cycle;Max_cycle;Signal;HPM_P1;HPM_P2
2023/11/25 00:00:48;;;;;;;17.27;2.70;;;6.20;99.90;;;;;;5141063;27;20275;-42
2023/11/25 00:03:15;;;;;;;12.55;2.50;;;6.20;99.90;;;;;;5138109;27;20933;-44
2023/11/25 00:05:41;;;;;;;11.68;2.58;;;6.20;99.90;;;;;;5140550;27;20220;-42
2023/11/25 00:08:08;;;;;;;13.88;2.40;;;6.20;99.90;;;;;;5140212;27;20732;-43
2023/11/25 00:10:34;;;;;;;11.90;2.03;;;6.20;99.90;;;;;;5140186;27;20184;-40
2023/11/25 00:13:01;;;;;;;12.23;2.28;;;6.20;99.90;;;;;;5140470;27;20242;-44
2023/11/25 00:15:28;;;;;;;17.48;2.83;;;6.10;99.90;;;;;;5139330;27;20184;-44
2023/11/25 00:17:55;;;;;;;17.98;2.60;;;6.20;99.90;;;;;;5138618;27;21567;-45
2023/11/25 00:20:21;;;;;;;20.05;2.42;;;6.20;99.90;;;;;;5140656;27;20228;-45
2023/11/25 00:22:47;;;;;;;12.25;2.88;;;6.20;99.90;;;;;;5138936;27;20641;-47
2023/11/25 00:25:15;;;;;;;13.02;2.60;;;6.20;99.90;;;;;;5119674;27;20188;-45
2023/11/25 00:27:42;;;;;;;13.85;2.60;;;6.30;99.90;;;;;;5141384;27;20210;-44
2023/11/25 00:30:08;;;;;;;12.00;2.70;;;6.30;99.90;;;;;;5123957;27;20184;-44
2023/11/25 00:32:37;;;;;;;15.57;2.75;;;6.40;99.90;;;;;;5138628;27;20177;-45
2023/11/25 00:35:05;;;;;;;11.00;2.72;;;6.40;99.90;;;;;;5121298;27;20183;-45
2023/11/25 00:37:35;;;;;;;7.47;2.10;;;6.60;99.90;;;;;;5140402;27;20195;-44
2023/11/25 00:40:07;;;;;;;19.80;2.63;;;6.60;99.90;;;;;;5137199;27;20195;-43
2023/11/25 00:42:34;;;;;;;13.88;3.13;;;6.60;99.90;;;;;;5139728;27;20548;-45
2023/11/25 00:45:00;;;;;;;11.10;1.95;;;6.60;99.90;;;;;;5103289;27;20211;-44
2023/11/25 00:47:27;;;;;;;15.63;2.70;;;6.60;99.90;;;;;;5138601;27;20584;-44
2023/11/25 00:49:53;;;;;;;10.88;2.72;;;6.60;99.90;;;;;;5139094;27;20220;-43
2023/11/25 00:52:19;;;;;;;12.13;2.60;;;6.60;99.90;;;;;;5104055;27;20199;-45
2023/11/25 00:54:46;;;;;;;16.70;2.95;;;6.70;99.90;;;;;;5140302;27;20184;-47
2023/11/25 00:57:12;;;;;;;12.52;2.67;;;6.70;99.90;;;;;;5139821;27;20202;-44
2023/11/25 00:59:38;;;;;;;15.25;2.75;;;6.60;99.90;;;;;;5137781;27;20202;-45
2023/11/25 01:02:03;;;;;;;12.68;2.38;;;6.60;99.90;;;;;;5121633;27;20179;-45
2023/11/25 01:04:29;;;;;;;15.23;2.85;;;6.60;99.90;;;;;;5136384;27;20235;-46
2023/11/25 01:06:55;;;;;;;17.33;3.25;;;6.50;99.90;;;;;;5104276;27;20215;-50
2023/11/25 01:09:25;;;;;;;20.35;3.20;;;6.50;99.90;;;;;;5105760;27;20638;-46
2023/11/25 01:11:54;;;;;;;17.15;2.85;;;6.40;99.90;;;;;;5120989;27;20801;-49
2023/11/25 01:14:20;;;;;;;23.55;2.97;;;6.40;99.90;;;;;;5122050;27;20202;-46
2023/11/25 01:16:45;;;;;;;18.13;3.58;;;6.40;99.90;;;;;;5139572;27;20188;-46
2023/11/25 01:19:12;;;;;;;17.40;3.28;;;6.30;99.90;;;;;;5103049;27;20240;-46
2023/11/25 01:21:38;;;;;;;14.85;3.17;;;6.30;99.90;;;;;;5121930;27;20651;-45
2023/11/25 01:24:06;;;;;;;25.95;4.00;;;6.30;99.90;;;;;;5136991;27;20184;-44
2023/11/25 01:26:32;;;;;;;27.67;3.42;;;6.30;99.90;;;;;;5120453;27;20893;-45
2023/11/25 01:28:58;;;;;;;25.77;3.58;;;6.30;99.90;;;;;;5102631;27;20212;-45
2023/11/25 01:31:26;;;;;;;26.40;3.70;;;6.30;99.90;;;;;;5128695;27;20191;-47
2023/11/25 01:33:51;;;;;;;18.13;3.13;;;6.30;99.90;;;;;;5137098;27;20215;-43
2023/11/25 01:36:17;;;;;;;14.57;2.60;;;6.30;99.90;;;;;;5104461;27;21278;-46
2023/11/25 01:38:44;;;;;;;10.52;2.30;;;6.40;99.90;;;;;;5121295;27;20556;-50
2023/11/25 01:41:10;;;;;;;19.90;2.90;;;6.40;99.90;;;;;;5139847;27;20188;-46
2023/11/25 01:43:37;;;;;;;20.48;3.47;;;6.40;99.90;;;;;;5136489;27;20682;-53
2023/11/25 01:46:04;;;;;;;10.60;2.50;;;6.50;99.90;;;;;;5119304;27;20591;-49
2023/11/25 01:48:30;;;;;;;18.23;3.33;;;6.50;99.90;;;;;;5138386;27;20203;-48
2023/11/25 01:50:58;;;;;;;13.52;2.80;;;6.50;99.90;;;;;;5121424;27;20184;-49
2023/11/25 01:53:26;;;;;;;17.48;2.88;;;6.50;99.90;;;;;;5138091;27;20616;-49
2023/11/25 01:55:54;;;;;;;19.38;3.00;;;6.50;99.90;;;;;;5122463;27;20180;-50
2023/11/25 01:58:20;;;;;;;21.00;2.97;;;6.50;99.90;;;;;;5120561;27;20208;-45
2023/11/25 02:00:46;;;;;;;17.00;2.45;;;6.50;99.90;;;;;;5121704;27;20279;-43
2023/11/25 02:03:13;;;;;;;19.02;2.80;;;6.60;99.90;;;;;;5100877;27;20215;-45
2023/11/25 02:05:39;;;;;;;16.08;2.92;;;6.60;99.90;;;;;;5123989;27;20212;-48
2023/11/25 02:08:09;;;;;;;24.50;3.75;;;6.60;99.90;;;;;;5121308;27;21075;-44
2023/11/25 02:10:35;;;;;;;18.80;3.25;;;6.60;99.90;;;;;;5104237;27;20224;-48
2023/11/25 02:13:02;;;;;;;17.73;3.45;;;6.50;99.90;;;;;;5138425;27;20192;-43
2023/11/25 02:15:30;;;;;;;20.00;3.20;;;6.50;99.90;;;;;;5109614;27;20192;-48
2023/11/25 02:17:56;;;;;;;26.77;3.90;;;6.40;99.90;;;;;;5102742;27;20195;-47
2023/11/25 02:20:37;;;;;;;24.42;3.47;;;6.40;99.90;;;;;;5120357;27;20184;-47
2023/11/25 02:23:04;;;;;;;30.23;3.97;;;6.30;99.90;;;;;;5092639;27;20190;-46
2023/11/25 02:25:32;;;;;;;14.73;2.95;;;6.40;99.90;;;;;;5119813;27;20191;-42
2023/11/25 02:27:58;;;;;;;30.88;3.80;;;6.30;99.90;;;;;;5137134;27;20211;-50
2023/11/25 02:30:24;;;;;;;22.05;3.63;;;6.30;99.90;;;;;;5120877;27;20183;-48
2023/11/25 02:32:50;;;;;;;27.52;3.75;;;6.40;99.90;;;;;;5119699;27;20279;-49
2023/11/25 02:35:17;;;;;;;36.42;4.10;;;6.40;99.90;;;;;;5120436;27;20184;-49
2023/11/25 02:37:46;;;;;;;24.67;3.50;;;6.40;99.90;;;;;;5121659;27;20263;-47
2023/11/25 02:40:16;;;;;;;25.58;3.63;;;6.40;99.90;;;;;;5099728;27;20195;-47
2023/11/25 02:42:48;;;;;;;25.33;3.53;;;6.40;99.90;;;;;;5136675;27;20236;-49
2023/11/25 02:45:19;;;;;;;15.38;3.55;;;6.40;99.90;;;;;;5138729;27;20266;-46
2023/11/25 02:47:47;;;;;;;10.30;2.40;;;6.40;99.90;;;;;;5140670;27;20207;-47
2023/11/25 02:50:13;;;;;;;18.88;2.55;;;6.50;99.90;;;;;;5140576;27;20524;-44
2023/11/25 02:52:40;;;;;;;9.20;1.75;;;6.40;99.90;;;;;;5143053;27;20185;-44
2023/11/25 02:55:10;;;;;;;17.70;2.40;;;6.50;99.90;;;;;;5141712;27;20181;-47
2023/11/25 02:57:43;;;;;;;14.75;2.47;;;6.50;99.90;;;;;;5125679;27;20200;-47
2023/11/25 03:02:53;;;;;;;11.68;2.28;;;6.50;99.90;;;;;;5123312;27;20249;-45
2023/11/25 03:05:22;;;;;;;16.40;2.30;;;6.50;99.90;;;;;;5123275;27;20227;-47
2023/11/25 03:07:50;;;;;;;12.95;2.40;;;6.50;99.90;;;;;;5123981;27;20291;-52
2023/11/25 03:10:16;;;;;;;23.35;3.22;;;6.50;99.90;;;;;;5111830;27;20179;-46
2023/11/25 03:12:44;;;;;;;13.07;2.53;;;6.50;99.90;;;;;;5124464;27;20905;-45
2023/11/25 03:15:11;;;;;;;17.73;3.53;;;6.50;99.90;;;;;;5142230;27;20262;-45
2023/11/25 03:17:38;;;;;;;17.75;3.03;;;6.60;99.90;;;;;;5140996;27;20207;-43
2023/11/25 03:20:06;;;;;;;26.95;3.67;;;6.60;99.90;;;;;;5125206;27;20643;-48
2023/11/25 03:22:33;;;;;;;18.80;2.83;;;6.60;99.90;;;;;;5140807;27;20191;-47
2023/11/25 03:25:00;;;;;;;20.45;3.10;;;6.70;99.90;;;;;;5142670;27;20203;-46
2023/11/25 03:27:28;;;;;;;20.42;3.15;;;6.70;99.90;;;;;;5142954;27;20691;-47
2023/11/25 03:29:54;;;;;;;11.63;2.65;;;6.70;99.90;;;;;;5137573;27;20190;-45
2023/11/25 03:32:21;;;;;;;13.88;2.53;;;6.70;99.90;;;;;;5140916;27;20891;-46
2023/11/25 03:34:47;;;;;;;12.95;3.00;;;6.70;99.90;;;;;;5138571;27;20184;-47
2023/11/25 03:37:13;;;;;;;9.48;2.88;;;6.70;99.90;;;;;;5140223;27;20192;-47
2023/11/25 03:39:39;;;;;;;17.17;2.15;;;6.50;99.90;;;;;;5141115;27;20189;-44
2023/11/25 03:42:05;;;;;;;11.50;2.13;;;6.30;99.90;;;;;;5140033;27;20226;-45
2023/11/25 03:44:31;;;;;;;9.18;2.10;;;6.20;99.90;;;;;;5123736;27;21104;-47
2023/11/25 03:46:57;;;;;;;11.50;1.75;;;6.10;99.90;;;;;;5139448;27;20187;-45
2023/11/25 03:49:24;;;;;;;11.30;2.25;;;6.10;99.90;;;;;;5105132;27;20197;-48
2023/11/25 03:51:50;;;;;;;20.35;2.45;;;6.10;99.90;;;;;;5142327;27;20275;-44
2023/11/25 03:54:16;;;;;;;13.95;2.33;;;6.00;99.90;;;;;;5123485;27;20192;-46
2023/11/25 03:56:42;;;;;;;9.00;1.95;;;6.10;99.90;;;;;;5122327;27;20287;-51
2023/11/25 03:59:08;;;;;;;15.23;2.03;;;6.10;99.90;;;;;;5123608;27;20231;-48
2023/11/25 04:01:34;;;;;;;7.30;2.05;;;6.10;99.90;;;;;;5110294;27;20188;-48
2023/11/25 04:04:04;;;;;;;10.57;2.10;;;6.20;99.90;;;;;;5123239;27;20195;-44
2023/11/25 04:06:30;;;;;;;11.05;2.10;;;6.20;99.90;;;;;;5141602;27;20196;-48
2023/11/25 04:08:56;;;;;;;7.80;2.03;;;6.20;99.90;;;;;;5137600;27;20235;-49
2023/11/25 04:11:22;;;;;;;8.25;2.35;;;6.30;99.90;;;;;;5121252;27;20220;-43
2023/11/25 04:13:48;;;;;;;11.38;2.20;;;6.30;99.90;;;;;;5123205;27;20184;-49
2023/11/25 04:16:15;;;;;;;15.05;2.55;;;6.30;99.90;;;;;;5105388;27;20195;-49
2023/11/25 04:18:42;;;;;;;10.43;2.30;;;6.40;99.90;;;;;;5140041;27;20192;-47
2023/11/25 04:21:08;;;;;;;12.25;1.77;;;6.30;99.90;;;;;;5141268;27;20199;-46
2023/11/25 04:23:34;;;;;;;13.20;2.20;;;6.40;99.90;;;;;;5110660;27;20675;-47
2023/11/25 04:26:02;;;;;;;16.92;2.30;;;6.40;99.90;;;;;;5140219;27;20319;-46
2023/11/25 04:28:29;;;;;;;18.40;2.30;;;6.40;99.90;;;;;;5122564;27;20215;-48
2023/11/25 04:30:55;;;;;;;13.18;2.22;;;6.50;99.90;;;;;;5136195;27;20292;-48
2023/11/25 04:33:21;;;;;;;13.95;2.50;;;6.50;99.90;;;;;;5138576;27;20188;-48
2023/11/25 04:35:47;;;;;;;18.85;2.40;;;6.50;99.90;;;;;;5122921;27;20187;-46
2023/11/25 04:38:13;;;;;;;12.70;2.30;;;6.50;99.90;;;;;;5140913;27;20271;-46
2023/11/25 04:40:39;;;;;;;12.13;2.38;;;6.60;99.90;;;;;;5139672;27;20200;-45
2023/11/25 04:43:05;;;;;;;9.60;1.98;;;6.60;99.90;;;;;;5140235;27;20192;-47
2023/11/25 04:45:31;;;;;;;14.75;1.90;;;6.70;99.90;;;;;;5121217;27;20280;-49
2023/11/25 04:47:57;;;;;;;12.55;2.30;;;6.80;99.90;;;;;;5105749;27;20264;-47
2023/11/25 04:50:26;;;;;;;17.73;2.35;;;6.80;99.90;;;;;;5136351;27;20188;-49
2023/11/25 04:52:52;;;;;;;13.27;2.40;;;6.80;99.90;;;;;;5138450;27;20236;-45
2023/11/25 04:55:19;;;;;;;10.88;2.47;;;6.70;99.90;;;;;;5121232;27;20188;-46
2023/11/25 04:57:45;;;;;;;17.80;2.42;;;6.60;99.90;;;;;;5140050;27;20191;-46
2023/11/25 05:00:13;;;;;;;24.50;2.83;;;6.60;99.90;;;;;;5122595;27;20193;-45
2023/11/25 05:02:40;;;;;;;15.57;2.70;;;6.50;99.90;;;;;;5140091;27;20195;-46
2023/11/25 05:05:07;;;;;;;8.45;1.90;;;6.50;99.90;;;;;;5138749;27;20647;-42
2023/11/25 05:07:33;;;;;;;17.48;2.05;;;6.50;99.90;;;;;;5110941;27;20211;-44
2023/11/25 05:10:00;;;;;;;16.60;1.90;;;6.30;99.90;;;;;;5137845;27;20180;-39
2023/11/25 05:12:27;;;;;;;10.00;1.77;;;6.10;99.90;;;;;;5138945;27;20191;-40
2023/11/25 05:14:53;;;;;;;10.63;1.67;;;5.90;99.90;;;;;;5136522;27;20187;-41
2023/11/25 05:17:19;;;;;;;8.90;1.58;;;5.70;99.90;;;;;;5138532;27;20191;-41
2023/11/25 05:19:45;;;;;;;10.05;1.63;;;5.60;99.90;;;;;;5138522;27;20260;-40
2023/11/25 05:22:12;;;;;;;9.70;1.80;;;5.40;99.90;;;;;;5139161;27;20199;-38
2023/11/25 05:24:38;;;;;;;10.60;1.70;;;5.30;99.90;;;;;;5137538;27;20664;-42
2023/11/25 05:27:04;;;;;;;11.07;1.50;;;5.20;99.90;;;;;;5138429;27;20259;-41
2023/11/25 05:29:30;;;;;;;6.95;1.42;;;5.10;99.90;;;;;;5138714;27;20217;-40
2023/11/25 05:31:57;;;;;;;13.18;1.35;;;5.10;99.90;;;;;;5139110;27;20302;-45
2023/11/25 05:34:24;;;;;;;7.72;1.45;;;5.00;99.90;;;;;;5136296;27;20180;-37
2023/11/25 05:36:50;;;;;;;10.90;1.45;;;5.00;99.90;;;;;;5138529;27;20186;-48
2023/11/25 05:39:20;;;;;;;4.30;1.35;;;5.00;99.90;;;;;;5136914;27;20648;-41
2023/11/25 05:41:49;;;;;;;8.23;1.40;;;5.00;99.90;;;;;;5138883;27;20199;-43
2023/11/25 05:44:15;;;;;;;9.38;1.48;;;5.00;99.90;;;;;;5138159;27;20180;-45
2023/11/25 05:46:41;;;;;;;10.55;1.67;;;5.00;99.90;;;;;;5137729;27;20199;-45
2023/11/25 05:49:10;;;;;;;10.52;1.80;;;5.10;99.90;;;;;;5137598;27;20235;-43
2023/11/25 05:51:44;;;;;;;14.45;1.70;;;5.10;99.90;;;;;;5137094;27;20291;-41
2023/11/25 05:54:12;;;;;;;10.13;1.40;;;5.20;99.90;;;;;;5119873;27;20202;-41
2023/11/25 05:56:40;;;;;;;14.88;2.17;;;5.30;99.90;;;;;;5120180;27;20188;-46
2023/11/25 05:59:08;;;;;;;14.45;2.25;;;5.30;99.90;;;;;;5131995;27;20542;-40
2023/11/25 06:01:37;;;;;;;10.02;1.80;;;5.30;99.90;;;;;;5136889;27;20211;-40
2023/11/25 06:04:03;;;;;;;15.93;2.42;;;5.30;99.90;;;;;;5119133;27;20191;-42
2023/11/25 06:06:29;;;;;;;11.48;1.67;;;5.20;99.90;;;;;;5137629;27;20655;-42
2023/11/25 06:08:55;;;;;;;11.48;2.38;;;5.20;99.90;;;;;;5121674;27;20214;-45
2023/11/25 06:11:23;;;;;;;15.48;2.15;;;5.20;99.90;;;;;;5135893;27;20226;-45
2023/11/25 06:13:49;;;;;;;19.67;2.38;;;5.20;99.90;;;;;;5137380;27;20183;-43
2023/11/25 06:16:15;;;;;;;14.50;2.53;;;5.30;99.90;;;;;;5134878;27;20195;-44
2023/11/25 06:18:41;;;;;;;18.48;2.65;;;5.40;99.90;;;;;;5117501;27;20184;-41
2023/11/25 06:21:08;;;;;;;23.02;3.75;;;5.40;99.90;;;;;;5123320;27;20184;-42
2023/11/25 06:23:34;;;;;;;16.65;2.67;;;5.50;99.90;;;;;;5141940;27;20190;-44
2023/11/25 06:26:00;;;;;;;18.00;2.72;;;5.50;99.90;;;;;;5142189;27;20192;-42
2023/11/25 06:28:27;;;;;;;25.67;2.72;;;5.50;99.90;;;;;;5123667;27;20211;-45
2023/11/25 06:30:53;;;;;;;16.15;2.95;;;5.50;99.90;;;;;;5143620;27;20185;-46
2023/11/25 06:33:29;;;;;;;20.33;2.78;;;5.50;99.90;;;;;;5108028;27;20184;-45
2023/11/25 06:35:56;;;;;;;21.25;2.90;;;5.50;99.90;;;;;;5139542;27;20194;-43
2023/11/25 06:38:23;;;;;;;15.43;2.65;;;5.40;99.90;;;;;;5141024;27;20198;-45
2023/11/25 06:40:49;;;;;;;29.95;3.33;;;5.50;99.90;;;;;;5142360;27;20195;-44
2023/11/25 06:43:15;;;;;;;26.45;3.10;;;5.40;99.90;;;;;;5143329;27;20179;-44
2023/11/25 06:45:44;;;;;;;23.13;2.50;;;5.50;99.90;;;;;;5142618;27;20188;-42
2023/11/25 06:48:12;;;;;;;16.27;2.33;;;5.40;99.90;;;;;;5106634;27;20218;-44
2023/11/25 06:50:38;;;;;;;18.35;2.53;;;5.50;99.90;;;;;;5124304;27;20192;-40
2023/11/25 06:53:04;;;;;;;18.75;2.53;;;5.50;99.90;;;;;;5142679;27;20670;-39
2023/11/25 06:55:32;;;;;;;11.32;2.25;;;5.40;99.90;;;;;;5121838;27;20284;-39
2023/11/25 06:57:58;;;;;;;11.27;1.90;;;5.40;99.90;;;;;;5141951;27;20275;-39
2023/11/25 07:00:24;;;;;;;11.95;2.33;;;5.30;99.90;;;;;;5140990;27;20286;-40
2023/11/25 07:02:50;;;;;;;13.73;2.15;;;5.20;99.90;;;;;;5141849;27;20188;-41
2023/11/25 07:05:16;;;;;;;16.13;1.92;;;5.20;99.90;;;;;;5141882;27;20231;-41
2023/11/25 07:07:42;;;;;;;11.38;2.13;;;5.20;99.90;;;;;;5139653;27;20215;-39
2023/11/25 07:10:13;;;;;;;17.70;2.85;;;5.20;99.90;;;;;;5138557;27;21466;-40
2023/11/25 07:12:40;;;;;;;16.60;3.47;;;5.30;99.90;;;;;;5129002;27;21000;-39
2023/11/25 07:15:08;;;;;;;10.23;2.17;;;5.30;99.90;;;;;;5121890;27;20358;-39
2023/11/25 07:17:37;;;;;;;11.65;2.08;;;5.30;99.90;;;;;;5142172;27;20190;-40
2023/11/25 07:20:05;;;;;;;8.68;1.65;;;5.30;99.90;;;;;;5141202;27;20432;-41
2023/11/25 07:22:32;;;;;;;9.02;1.40;;;5.30;99.90;;;;;;5141995;27;20240;-44
2023/11/25 07:24:58;;;;;;;8.00;1.92;;;5.30;99.90;;;;;;5141626;27;20214;-40
2023/11/25 07:27:24;;;;;;;9.23;1.55;;;5.30;99.90;;;;;;5090166;27;20703;-41
2023/11/25 07:29:50;;;;;;;13.05;2.10;;;5.30;99.90;;;;;;5139595;27;20187;-45
2023/11/25 07:32:15;;;;;;;18.52;2.42;;;5.30;99.90;;;;;;5140035;27;20180;-42
2023/11/25 07:34:41;;;;;;;19.05;2.45;;;5.30;99.90;;;;;;5123750;27;20188;-42
2023/11/25 07:37:07;;;;;;;14.05;2.38;;;5.30;99.90;;;;;;5137639;27;20188;-42
2023/11/25 07:39:34;;;;;;;13.70;2.08;;;5.40;99.90;;;;;;5140992;27;20730;-44
2023/11/25 07:42:01;;;;;;;12.15;2.25;;;5.50;99.90;;;;;;5139273;27;20187;-39
2023/11/25 07:44:30;;;;;;;9.55;1.95;;;5.50;99.90;;;;;;5141329;27;20191;-42
2023/11/25 07:46:57;;;;;;;5.55;1.30;;;5.60;99.90;;;;;;5139857;27;20245;-44
2023/11/25 07:49:23;;;;;;;9.30;1.58;;;5.60;99.90;;;;;;5118581;27;20203;-41
2023/11/25 07:51:49;;;;;;;6.38;1.55;;;5.60;99.90;;;;;;5140963;27;20210;-43
2023/11/25 07:54:18;;;;;;;12.60;1.98;;;5.60;99.90;;;;;;5106684;27;20960;-44
2023/11/25 07:56:45;;;;;;;17.20;2.25;;;5.60;99.90;;;;;;5142260;27;20578;-41
2023/11/25 07:59:11;;;;;;;14.93;1.90;;;5.60;99.90;;;;;;5119910;27;20207;-40
2023/11/25 08:01:37;;;;;;;15.07;2.10;;;5.70;99.90;;;;;;5140308;27;20188;-39
2023/11/25 08:04:04;;;;;;;19.98;2.42;;;5.70;99.90;;;;;;5121154;27;20199;-41
2023/11/25 08:06:30;;;;;;;22.55;3.00;;;5.70;99.90;;;;;;5121667;27;20547;-45
2023/11/25 08:08:56;;;;;;;14.60;2.40;;;5.80;99.90;;;;;;5140584;27;20208;-43
2023/11/25 08:11:24;;;;;;;18.08;2.95;;;5.80;99.90;;;;;;5138437;27;20272;-40
2023/11/25 08:13:50;;;;;;;24.30;3.50;;;6.00;99.90;;;;;;5140767;27;20267;-44
2023/11/25 08:16:18;;;;;;;16.05;2.72;;;6.00;99.90;;;;;;5135339;27;20260;-40
2023/11/25 08:18:47;;;;;;;15.55;2.10;;;6.20;99.90;;;;;;5140760;27;20184;-38
2023/11/25 08:21:14;;;;;;;9.95;2.00;;;6.40;99.90;;;;;;5140896;27;20196;-40
2023/11/25 08:23:41;;;;;;;7.93;2.13;;;6.50;99.90;;;;;;5120226;27;20312;-41
2023/11/25 08:26:27;;;;;;;11.07;1.73;;;6.60;99.90;;;;;;5139758;27;20176;-41
2023/11/25 08:28:54;;;;;;;9.73;1.83;;;6.60;99.90;;;;;;5139705;27;20203;-44
2023/11/25 08:31:20;;;;;;;8.27;1.42;;;6.50;99.90;;;;;;5137600;27;20669;-42
2023/11/25 08:33:47;;;;;;;10.25;1.58;;;6.50;99.90;;;;;;5139783;27;20735;-46
2023/11/25 08:36:15;;;;;;;10.05;1.83;;;6.50;99.90;;;;;;5137577;27;20184;-41
2023/11/25 08:38:41;;;;;;;11.20;1.75;;;6.50;99.90;;;;;;5140100;27;20283;-41
2023/11/25 08:41:07;;;;;;;13.90;2.13;;;6.60;99.90;;;;;;5140556;27;20264;-44
2023/11/25 08:43:43;;;;;;;15.50;2.35;;;6.70;99.90;;;;;;5120831;27;20302;-40
2023/11/25 08:46:10;;;;;;;18.38;3.00;;;6.70;99.90;;;;;;5138154;27;20191;-44
2023/11/25 08:48:36;;;;;;;26.20;3.38;;;6.70;99.90;;;;;;5137820;27;20237;-42
2023/11/25 08:51:05;;;;;;;18.90;2.58;;;6.70;99.90;;;;;;5139031;27;20659;-43
2023/11/25 08:53:32;;;;;;;24.73;3.40;;;6.70;99.90;;;;;;5137557;27;20252;-43
2023/11/25 08:56:02;;;;;;;21.52;3.35;;;6.80;99.90;;;;;;5122727;27;20194;-44
2023/11/25 08:58:29;;;;;;;15.73;2.70;;;6.80;99.90;;;;;;5141912;27;20461;-40
2023/11/25 09:00:55;;;;;;;27.63;3.42;;;6.90;99.90;;;;;;5123121;27;20925;-42
2023/11/25 09:03:22;;;;;;;17.15;3.13;;;7.00;99.90;;;;;;5136492;27;20593;-42
2023/11/25 09:05:49;;;;;;;22.70;3.45;;;7.10;99.90;;;;;;5119475;27;20227;-42
2023/11/25 09:08:15;;;;;;;16.58;2.15;;;7.30;99.90;;;;;;5139589;27;20212;-41
2023/11/25 09:10:41;;;;;;;12.90;2.53;;;7.40;99.90;;;;;;5140753;27;20180;-46
2023/11/25 09:13:07;;;;;;;20.85;3.20;;;7.50;99.90;;;;;;5137315;27;20184;-43
2023/11/25 09:15:34;;;;;;;9.70;2.20;;;7.50;99.90;;;;;;5139374;27;20212;-44
2023/11/25 09:18:06;;;;;;;12.57;2.65;;;7.50;99.90;;;;;;5137478;27;20197;-42
2023/11/25 09:20:33;;;;;;;13.68;2.13;;;7.50;99.90;;;;;;5139124;27;20187;-41
2023/11/25 09:22:59;;;;;;;10.02;1.63;;;7.40;99.90;;;;;;5110842;27;20180;-41
2023/11/25 09:25:24;;;;;;;12.05;1.95;;;7.40;99.90;;;;;;5121634;27;20540;-45
2023/11/25 09:27:52;;;;;;;11.32;2.00;;;7.40;99.90;;;;;;5120089;27;20777;-42
2023/11/25 09:30:18;;;;;;;11.15;2.10;;;7.40;99.90;;;;;;5138089;27;20180;-43
2023/11/25 09:32:44;;;;;;;10.93;2.08;;;7.40;99.90;;;;;;5139646;27;20194;-43
2023/11/25 09:35:11;;;;;;;12.32;1.80;;;7.40;99.90;;;;;;5136851;27;20180;-45
2023/11/25 09:37:38;;;;;;;9.82;2.28;;;7.40;99.90;;;;;;5137474;27;20199;-40
2023/11/25 09:40:05;;;;;;;14.60;2.58;;;7.50;99.90;;;;;;5139909;27;20184;-42
2023/11/25 09:42:32;;;;;;;15.65;3.17;;;7.50;99.90;;;;;;5138992;27;20575;-44
2023/11/25 09:44:59;;;;;;;9.18;2.28;;;7.50;99.90;;;;;;5139089;27;20582;-44
2023/11/25 09:47:26;;;;;;;14.27;1.95;;;7.40;99.90;;;;;;5137022;27;20695;-44
2023/11/25 09:49:52;;;;;;;12.55;2.28;;;7.50;99.90;;;;;;5121633;27;20233;-45
2023/11/25 09:52:19;;;;;;;22.20;2.40;;;7.50;99.90;;;;;;5119885;27;20185;-45
2023/11/25 09:54:46;;;;;;;8.45;2.53;;;7.60;99.90;;;;;;5134149;27;20187;-46
2023/11/25 09:57:18;;;;;;;12.05;2.15;;;7.60;99.90;;;;;;5136063;27;20237;-45
2023/11/25 09:59:44;;;;;;;22.75;3.22;;;7.70;99.90;;;;;;5139874;27;20184;-45
2023/11/25 10:02:11;;;;;;;12.18;2.10;;;7.80;99.90;;;;;;5138136;27;20659;-42
2023/11/25 10:04:39;;;;;;;14.43;1.98;;;7.90;99.90;;;;;;5135224;27;21287;-44
2023/11/25 10:07:11;;;;;;;13.50;2.03;;;7.90;99.90;;;;;;5118298;27;20693;-45
2023/11/25 10:09:40;;;;;;;13.10;2.00;;;7.90;99.90;;;;;;5139710;27;20633;-44
2023/11/25 10:12:09;;;;;;;11.23;1.85;;;7.90;99.90;;;;;;5122402;27;20187;-48
2023/11/25 10:14:44;;;;;;;13.48;2.22;;;7.90;99.90;;;;;;5136627;27;20353;-44
2023/11/25 10:17:18;;;;;;;11.68;2.25;;;7.90;99.90;;;;;;5138778;27;20263;-49
2023/11/25 10:19:46;;;;;;;13.68;2.35;;;8.00;99.90;;;;;;5136897;27;20252;-48
2023/11/25 10:22:12;;;;;;;12.70;2.28;;;8.10;99.90;;;;;;5122003;27;20183;-48
2023/11/25 10:24:52;;;;;;;16.40;2.67;;;8.10;99.90;;;;;;5117772;27;20184;-45
2023/11/25 10:27:19;;;;;;;11.50;2.25;;;8.10;99.90;;;;;;5136374;27;20582;-48
2023/11/25 10:29:49;;;;;;;13.93;2.28;;;8.10;99.90;;;;;;5138091;27;20184;-44
2023/11/25 10:32:15;;;;;;;13.65;2.60;;;8.10;99.90;;;;;;5139173;27;20188;-49
2023/11/25 10:34:41;;;;;;;16.60;2.28;;;8.10;99.90;;;;;;5138115;27;20184;-47
2023/11/25 10:37:09;;;;;;;12.02;2.22;;;8.20;99.90;;;;;;5137211;27;20184;-44
2023/11/25 10:39:35;;;;;;;16.08;3.15;;;8.20;99.90;;;;;;5138480;27;20216;-44
2023/11/25 10:42:07;;;;;;;14.38;2.45;;;8.30;99.90;;;;;;5138460;27;20199;-46
2023/11/25 10:44:38;;;;;;;6.70;2.20;;;8.40;99.90;;;;;;5139459;27;20670;-47
2023/11/25 10:47:05;;;;;;;9.05;2.10;;;8.50;99.90;;;;;;5118587;27;20267;-46
2023/11/25 10:49:35;;;;;;;13.38;2.17;;;8.50;99.90;;;;;;5138507;27;20196;-48
2023/11/25 10:52:06;;;;;;;15.43;2.10;;;8.40;99.90;;;;;;5119810;27;20632;-48
2023/11/25 10:54:35;;;;;;;8.93;2.05;;;8.40;99.90;;;;;;5120408;27;20195;-48
2023/11/25 10:57:05;;;;;;;9.43;2.08;;;8.40;99.90;;;;;;5136000;27;20262;-53
2023/11/25 10:59:39;;;;;;;12.75;2.30;;;8.40;99.90;;;;;;5140152;27;20183;-46
2023/11/25 11:02:25;;;;;;;10.90;2.17;;;8.40;99.90;;;;;;5137922;27;20206;-49
2023/11/25 11:04:58;;;;;;;7.47;1.75;;;8.50;99.90;;;;;;5137243;27;20215;-49
2023/11/25 11:07:26;;;;;;;12.60;2.78;;;8.40;99.90;;;;;;5103772;27;20211;-49
2023/11/25 11:09:57;;;;;;;5.00;1.40;;;8.50;99.90;;;;;;5141314;27;20247;-46
2023/11/25 11:12:36;;;;;;;12.00;1.83;;;8.60;99.90;;;;;;5143594;27;20294;-47
2023/11/25 11:15:06;;;;;;;9.57;1.77;;;8.60;99.90;;;;;;5139173;27;20187;-44
2023/11/25 11:17:41;;;;;;;6.63;1.38;;;8.60;99.90;;;;;;5140951;27;20191;-50
2023/11/25 11:20:12;;;;;;;5.65;1.60;;;8.60;99.90;;;;;;5124339;27;20180;-51
2023/11/25 11:22:43;;;;;;;4.80;1.20;;;8.70;99.90;;;;;;5141849;27;20192;-48
2023/11/25 11:25:31;;;;;;;8.02;1.50;;;8.80;99.90;;;;;;5141616;27;20663;-49
2023/11/25 11:28:02;;;;;;;7.20;1.73;;;8.80;99.90;;;;;;5128916;27;20211;-46
2023/11/25 11:30:57;;;;;;;8.63;1.50;;;8.80;99.90;;;;;;5142170;27;20286;-47
2023/11/25 11:33:23;;;;;;;6.10;1.35;;;8.70;99.90;;;;;;5142773;27;20232;-50
2023/11/25 11:35:49;;;;;;;6.80;1.40;;;8.60;99.90;;;;;;5140508;27;20259;-49
2023/11/25 11:38:26;;;;;;;4.68;1.55;;;8.50;99.90;;;;;;5141915;27;20275;-45
2023/11/25 11:41:13;;;;;;;7.38;1.55;;;8.20;99.90;;;;;;5139253;27;20686;-45
2023/11/25 11:43:39;;;;;;;2.33;1.08;;;8.10;99.90;;;;;;5109748;27;20588;-46
2023/11/25 11:46:05;;;;;;;5.00;1.20;;;7.90;99.90;;;;;;5123134;27;20208;-45
2023/11/25 11:48:31;;;;;;;5.30;1.30;;;7.70;99.90;;;;;;5123427;27;20316;-45
2023/11/25 11:50:58;;;;;;;6.43;1.52;;;7.60;99.90;;;;;;5139660;27;20192;-49
2023/11/25 11:53:25;;;;;;;6.22;1.55;;;7.50;99.90;;;;;;5106334;27;20192;-50
2023/11/25 11:55:52;;;;;;;5.97;1.88;;;7.40;99.90;;;;;;5141207;27;20189;-47
2023/11/25 11:58:23;;;;;;;5.20;1.60;;;7.40;99.90;;;;;;5141139;27;20228;-48
2023/11/25 12:01:02;;;;;;;4.85;1.80;;;7.50;99.90;;;;;;5124688;27;20195;-45
2023/11/25 12:03:33;;;;;;;6.32;1.80;;;7.50;99.90;;;;;;5119568;27;20710;-43
2023/11/25 12:06:00;;;;;;;7.78;1.80;;;7.60;99.90;;;;;;5139682;27;20228;-47
2023/11/25 12:08:27;;;;;;;9.73;1.75;;;7.60;99.90;;;;;;5139821;27;20223;-43
2023/11/25 12:10:54;;;;;;;9.55;1.80;;;7.60;99.90;;;;;;5094412;27;20723;-43
2023/11/25 12:13:27;;;;;;;7.25;1.88;;;7.60;99.90;;;;;;5118499;27;20180;-45
2023/11/25 12:15:53;;;;;;;9.25;2.17;;;7.70;99.90;;;;;;5139617;27;20184;-43
2023/11/25 12:18:20;;;;;;;7.45;2.60;;;7.70;99.90;;;;;;5138687;27;20196;-43
2023/11/25 12:20:46;;;;;;;5.72;1.42;;;7.80;99.90;;;;;;5122062;27;20393;-43
2023/11/25 12:23:12;;;;;;;9.85;2.25;;;7.80;99.90;;;;;;5136112;27;20288;-47
2023/11/25 12:25:39;;;;;;;8.73;2.67;;;7.80;99.90;;;;;;5138912;27;20187;-45
2023/11/25 12:28:07;;;;;;;5.35;1.50;;;7.80;99.90;;;;;;5122599;27;20211;-42
2023/11/25 12:30:37;;;;;;;7.03;1.75;;;7.90;99.90;;;;;;5139038;27;20180;-43
2023/11/25 12:33:07;;;;;;;8.13;1.52;;;7.90;99.90;;;;;;5139565;27;20195;-43
2023/11/25 12:35:34;;;;;;;6.97;1.77;;;8.00;99.90;;;;;;5108483;27;20271;-46
2023/11/25 12:38:01;;;;;;;5.13;1.50;;;8.10;99.90;;;;;;5140925;27;20688;-44
2023/11/25 12:40:28;;;;;;;6.55;1.48;;;8.20;99.90;;;;;;5139710;27;20191;-44
2023/11/25 12:42:54;;;;;;;5.70;1.48;;;8.40;99.90;;;;;;5102760;27;20184;-48
2023/11/25 12:45:35;;;;;;;4.30;1.30;;;8.50;99.90;;;;;;5122811;27;20192;-43
2023/11/25 12:48:03;;;;;;;7.57;1.30;;;8.60;99.90;;;;;;5139987;27;20233;-41
2023/11/25 12:50:29;;;;;;;5.82;1.33;;;8.60;99.90;;;;;;5139070;27;20189;-43
2023/11/25 12:53:06;;;;;;;5.57;1.50;;;8.50;99.90;;;;;;5138910;27;20194;-44
2023/11/25 12:55:43;;;;;;;26.73;13.88;;;8.50;99.90;;;;;;5120552;27;20183;-44